Time;durP1;ratioP1;P1;durP2;ratioP2;P2;SDS_P1;SDS_P2;PMS_P1;PMS_P2;Temp;Humidity;BMP_temperature;BMP_pressure;BME280_temperature;BME280_humidity;BME280_pressure;Samples;Min_cycle;Max_cycle;Signal;HPM_P1;HPM_P2
2021/12/12 00:01:25;;;;;;;23.63;15.50;;;0.10;99.90;;;;;;4973426;28;20015;-78
2021/12/12 00:03:56;;;;;;;21.63;14.53;;;0.10;99.90;;;;;;4973341;28;20117;-78
2021/12/12 00:06:25;;;;;;;20.47;15.10;;;0.10;99.90;;;;;;4972333;28;20019;-78
2021/12/12 00:08:56;;;;;;;24.83;14.97;;;0.10;99.90;;;;;;4955852;28;20038;-78
2021/12/12 00:11:29;;;;;;;21.60;14.53;;;0.20;99.90;;;;;;4973251;28;20027;-78
2021/12/12 00:13:56;;;;;;;21.13;14.50;;;0.20;99.90;;;;;;4973140;28;20050;-78
2021/12/12 00:16:22;;;;;;;22.97;14.73;;;0.20;99.90;;;;;;4973114;28;20033;-78
2021/12/12 00:18:48;;;;;;;21.07;14.90;;;0.20;99.90;;;;;;4973018;28;20027;-78
2021/12/12 00:21:25;;;;;;;23.30;13.97;;;0.30;99.90;;;;;;4973090;28;20181;-78
2021/12/12 00:23:50;;;;;;;23.07;15.80;;;0.30;99.90;;;;;;4973142;28;20034;-78
2021/12/12 00:26:17;;;;;;;20.03;14.27;;;0.30;99.90;;;;;;4973233;28;20071;-78
2021/12/12 00:28:43;;;;;;;22.00;14.07;;;0.30;99.90;;;;;;4973419;28;20038;-78
2021/12/12 00:31:14;;;;;;;21.60;14.00;;;0.40;99.90;;;;;;4972928;28;20118;-78
2021/12/12 00:33:42;;;;;;;22.67;14.47;;;0.40;99.90;;;;;;4973359;28;20339;-78
2021/12/12 00:36:10;;;;;;;19.30;13.37;;;0.40;99.90;;;;;;4973179;28;20049;-78
2021/12/12 00:38:36;;;;;;;24.23;14.83;;;0.40;99.90;;;;;;4973131;28;20023;-78
2021/12/12 00:41:09;;;;;;;22.17;13.77;;;0.50;99.90;;;;;;4972847;28;20084;-78
2021/12/12 00:43:42;;;;;;;20.53;14.43;;;0.50;99.90;;;;;;4972779;28;20015;-78
2021/12/12 00:46:10;;;;;;;24.70;14.13;;;0.50;99.90;;;;;;4973167;28;20034;-78
2021/12/12 00:48:36;;;;;;;19.60;13.50;;;0.50;99.90;;;;;;4973194;28;20027;-78
2021/12/12 00:51:06;;;;;;;21.73;14.13;;;0.50;99.90;;;;;;4955545;28;20490;-78
2021/12/12 00:53:32;;;;;;;22.93;14.87;;;0.50;99.90;;;;;;4972548;28;20472;-78
2021/12/12 00:55:58;;;;;;;21.33;14.00;;;0.60;99.90;;;;;;4972795;28;20062;-78
2021/12/12 00:58:24;;;;;;;20.47;13.30;;;0.60;99.90;;;;;;4972910;28;20088;-78
2021/12/12 01:00:59;;;;;;;19.03;13.93;;;0.60;99.90;;;;;;4972594;28;20031;-78
2021/12/12 01:03:32;;;;;;;19.60;13.35;;;0.60;99.90;;;;;;4972467;28;20408;-78
2021/12/12 01:06:00;;;;;;;20.10;13.87;;;0.60;99.90;;;;;;4972621;28;20026;-78
2021/12/12 01:08:27;;;;;;;20.40;14.60;;;0.60;99.90;;;;;;4972443;28;20044;-78
2021/12/12 01:10:58;;;;;;;18.97;13.47;;;0.70;99.90;;;;;;4955087;28;20037;-78
2021/12/12 01:13:23;;;;;;;18.23;13.50;;;0.70;99.90;;;;;;4955319;28;20096;-78
2021/12/12 01:15:55;;;;;;;20.60;13.87;;;0.70;99.90;;;;;;4972341;28;20030;-78
2021/12/12 01:18:30;;;;;;;19.03;13.83;;;0.80;99.90;;;;;;4972261;28;20079;-78
2021/12/12 01:20:58;;;;;;;;;;;0.80;99.90;;;;;;4972604;28;20383;-78
2021/12/12 01:23:47;;;;;;;18.33;13.03;;;0.80;99.90;;;;;;4972418;28;19906;-78
2021/12/12 01:26:13;;;;;;;19.33;13.97;;;0.80;99.90;;;;;;4954880;28;20023;-78
2021/12/12 01:28:43;;;;;;;20.13;13.83;;;0.80;99.90;;;;;;4972376;28;20031;-78
2021/12/12 01:31:12;;;;;;;19.47;13.57;;;0.80;99.90;;;;;;4972160;28;20026;-78
2021/12/12 01:33:38;;;;;;;19.63;13.40;;;0.80;99.90;;;;;;4972325;28;20027;-78
2021/12/12 01:36:12;;;;;;;19.90;13.80;;;0.80;99.90;;;;;;4971949;28;20106;-78
2021/12/12 01:41:17;;;;;;;17.77;13.47;;;0.90;99.90;;;;;;4972205;28;20109;-78
2021/12/12 01:43:47;;;;;;;18.70;13.80;;;0.90;99.90;;;;;;4972111;28;20407;-78
2021/12/12 01:46:40;;;;;;;20.03;14.00;;;0.90;99.90;;;;;;4972234;28;20062;-78
2021/12/12 01:49:19;;;;;;;19.67;14.07;;;0.90;99.90;;;;;;4971800;28;20109;-78
2021/12/12 01:51:47;;;;;;;20.17;14.20;;;0.90;99.90;;;;;;4971827;28;20034;-78
2021/12/12 01:54:16;;;;;;;20.50;14.07;;;0.90;99.90;;;;;;4972018;28;20026;-78
2021/12/12 01:56:54;;;;;;;21.23;14.27;;;0.90;99.90;;;;;;4972113;28;20030;-78
2021/12/12 01:59:30;;;;;;;22.33;14.40;;;0.90;99.90;;;;;;4954411;28;20057;-78
2021/12/12 02:02:11;;;;;;;22.13;14.33;;;0.90;99.90;;;;;;4972180;28;20460;-78
2021/12/12 02:04:47;;;;;;;20.23;14.33;;;0.90;99.90;;;;;;4971959;28;20038;-78
2021/12/12 02:07:16;;;;;;;19.83;14.67;;;1.00;99.90;;;;;;4971670;28;20038;-78
2021/12/12 02:09:43;;;;;;;19.37;13.23;;;1.00;99.90;;;;;;4972220;28;20460;-78
2021/12/12 02:12:09;;;;;;;18.93;13.67;;;1.00;99.90;;;;;;4971355;28;20377;-78
2021/12/12 02:14:38;;;;;;;20.70;14.67;;;1.00;99.90;;;;;;4971924;28;20039;-78
2021/12/12 02:17:28;;;;;;;20.10;13.90;;;1.00;99.90;;;;;;4971391;28;20035;-78
2021/12/12 02:20:14;;;;;;;21.23;14.37;;;1.00;99.90;;;;;;4971603;28;20026;-78
2021/12/12 02:36:41;;;;;;;20.23;14.90;;;1.00;99.90;;;;;;4974509;28;20038;-78
2021/12/12 02:39:15;;;;;;;21.97;14.70;;;1.00;99.90;;;;;;4974553;28;20422;-78
2021/12/12 02:41:48;;;;;;;19.40;13.90;;;1.00;99.90;;;;;;4974940;28;20069;-78
2021/12/12 02:44:14;;;;;;;19.07;13.87;;;1.00;99.90;;;;;;4974727;28;20513;-78
2021/12/12 02:46:42;;;;;;;20.33;13.77;;;0.90;99.90;;;;;;4974852;28;20019;-78
2021/12/12 02:49:24;;;;;;;21.30;14.80;;;1.00;99.90;;;;;;4974724;28;20026;-78
2021/12/12 02:51:52;;;;;;;20.40;14.20;;;1.00;99.90;;;;;;4974772;28;20031;-78
2021/12/12 02:54:17;;;;;;;19.90;14.40;;;1.00;99.90;;;;;;4974870;28;20372;-78
2021/12/12 02:56:46;;;;;;;19.20;13.83;;;1.00;99.90;;;;;;4974185;28;20031;-78
2021/12/12 02:59:16;;;;;;;18.67;13.63;;;1.00;99.90;;;;;;4974782;28;20023;-78
2021/12/12 03:01:54;;;;;;;19.13;13.60;;;1.10;99.90;;;;;;4974660;28;20018;-78
2021/12/12 03:04:20;;;;;;;21.83;15.07;;;1.00;99.90;;;;;;4974684;28;20031;-78
2021/12/12 03:06:45;;;;;;;20.07;13.93;;;1.10;99.90;;;;;;4974590;28;20034;-78
2021/12/12 03:09:16;;;;;;;22.40;14.17;;;1.10;99.90;;;;;;4974468;28;20038;-78
2021/12/12 03:11:46;;;;;;;22.63;14.63;;;1.00;99.90;;;;;;4956888;28;20049;-78
2021/12/12 03:14:12;;;;;;;21.27;13.90;;;1.00;99.90;;;;;;4974090;28;20050;-78
2021/12/12 03:16:38;;;;;;;21.00;13.83;;;1.00;99.90;;;;;;4974363;28;20023;-78
2021/12/12 03:19:06;;;;;;;21.30;13.77;;;1.00;99.90;;;;;;4974370;28;20023;-78
2021/12/12 03:21:37;;;;;;;18.73;13.53;;;1.00;99.90;;;;;;4974188;28;20031;-78
2021/12/12 03:24:13;;;;;;;20.10;14.50;;;1.10;99.90;;;;;;4974453;28;20045;-78
2021/12/12 03:26:42;;;;;;;;;;;1.10;99.90;;;;;;4957036;28;20034;-78
2021/12/12 03:29:08;;;;;;;18.83;12.53;;;1.00;99.90;;;;;;4973995;28;19913;-78
2021/12/12 03:31:37;;;;;;;16.50;12.63;;;1.00;99.90;;;;;;4973942;28;20352;-78
2021/12/12 03:34:10;;;;;;;20.50;13.93;;;1.00;99.90;;;;;;4956689;28;20340;-78
2021/12/12 03:36:36;;;;;;;20.90;13.53;;;1.00;99.90;;;;;;4973884;28;20409;-78
2021/12/12 03:39:15;;;;;;;20.20;13.30;;;1.10;99.90;;;;;;4974139;28;20031;-78
2021/12/12 03:41:41;;;;;;;18.70;12.77;;;1.10;99.90;;;;;;4974045;28;20038;-78
2021/12/12 03:44:13;;;;;;;19.83;13.57;;;1.10;99.90;;;;;;4956520;28;20069;-78
2021/12/12 03:46:40;;;;;;;19.47;13.43;;;1.10;99.90;;;;;;4973713;28;20027;-78
2021/12/12 03:49:07;;;;;;;20.30;13.47;;;1.10;99.90;;;;;;4973890;28;20030;-79
2021/12/12 03:51:35;;;;;;;20.53;13.47;;;1.10;99.90;;;;;;4956338;28;20027;-78
2021/12/12 03:54:01;;;;;;;22.20;13.23;;;1.10;99.90;;;;;;4973928;28;20023;-78
2021/12/12 03:56:27;;;;;;;15.93;12.47;;;1.10;99.90;;;;;;4973870;28;20035;-78
2021/12/12 03:58:54;;;;;;;16.67;11.80;;;1.20;99.90;;;;;;4974488;28;20088;-78
2021/12/12 04:01:21;;;;;;;17.00;11.90;;;1.20;99.90;;;;;;4973772;28;20023;-78
2021/12/12 04:03:52;;;;;;;17.70;12.23;;;1.20;99.90;;;;;;4956201;28;20440;-78
2021/12/12 04:06:22;;;;;;;18.00;12.20;;;1.20;99.90;;;;;;4956120;28;20023;-78
2021/12/12 04:08:50;;;;;;;19.70;12.47;;;1.20;99.90;;;;;;4973895;28;20149;-78
2021/12/12 04:11:20;;;;;;;17.97;12.63;;;1.20;99.90;;;;;;4973449;28;20042;-78
2021/12/12 04:13:48;;;;;;;18.27;12.67;;;1.20;99.90;;;;;;4956084;28;20047;-78
2021/12/12 04:16:15;;;;;;;18.13;12.30;;;1.20;99.90;;;;;;4973595;28;20026;-78
2021/12/12 04:18:41;;;;;;;18.97;12.83;;;1.20;99.90;;;;;;4973236;28;20057;-78
2021/12/12 04:21:08;;;;;;;17.20;12.70;;;1.20;99.90;;;;;;4973411;28;20019;-78
2021/12/12 04:23:34;;;;;;;16.97;11.60;;;1.20;99.90;;;;;;4973397;28;20102;-78
2021/12/12 04:26:36;;;;;;;19.07;13.10;;;1.20;99.90;;;;;;4973281;28;20102;-78
2021/12/12 04:29:10;;;;;;;17.27;11.77;;;1.20;99.90;;;;;;4973047;28;20031;-78
2021/12/12 04:31:40;;;;;;;19.43;13.43;;;1.20;99.90;;;;;;4955754;28;20471;-78
2021/12/12 04:34:07;;;;;;;17.93;12.47;;;1.10;99.90;;;;;;4973167;28;20035;-78
2021/12/12 04:36:40;;;;;;;20.90;13.57;;;1.10;99.90;;;;;;4973084;28;20034;-78
2021/12/12 04:39:10;;;;;;;18.07;13.40;;;1.10;99.90;;;;;;4973548;28;20027;-78
2021/12/12 04:41:37;;;;;;;16.73;12.77;;;1.10;99.90;;;;;;4973061;28;20030;-78
2021/12/12 04:44:03;;;;;;;18.20;12.70;;;1.10;99.90;;;;;;4972845;28;20057;-78
2021/12/12 04:49:54;;;;;;;17.57;12.10;;;1.10;99.90;;;;;;4973067;28;20034;-78
2021/12/12 04:52:09;;;;;;;17.25;12.68;;;1.10;99.90;;;;;;4972456;28;20092;-78
2021/12/12 04:55:00;;;;;;;17.47;12.53;;;1.10;99.90;;;;;;4973321;28;20027;-78
2021/12/12 04:57:40;;;;;;;17.73;11.87;;;1.10;99.90;;;;;;4937805;28;20461;-78
2021/12/12 05:00:19;;;;;;;16.20;11.43;;;1.10;99.90;;;;;;4972905;28;20402;-78
2021/12/12 05:03:19;;;;;;;15.70;11.50;;;1.10;99.90;;;;;;4955314;28;20031;-78
2021/12/12 05:06:13;;;;;;;17.70;12.00;;;1.20;99.90;;;;;;4972541;28;20114;-78
2021/12/12 05:09:05;;;;;;;15.90;10.73;;;1.20;99.90;;;;;;4972693;28;20038;-78
2021/12/12 05:11:38;;;;;;;15.63;10.77;;;1.20;99.90;;;;;;4963890;28;20053;-78
2021/12/12 05:14:11;;;;;;;14.40;10.40;;;1.20;99.90;;;;;;4955021;28;20406;-78
2021/12/12 05:16:40;;;;;;;15.10;10.50;;;1.20;99.90;;;;;;4972531;28;20035;-78
2021/12/12 05:19:15;;;;;;;16.50;11.17;;;1.20;99.90;;;;;;4972361;28;20023;-78
2021/12/12 05:21:47;;;;;;;15.77;11.05;;;1.20;99.90;;;;;;4954986;28;20080;-78
2021/12/12 05:24:15;;;;;;;13.63;9.83;;;1.20;99.90;;;;;;4972615;28;20062;-78
2021/12/12 05:26:49;;;;;;;14.57;10.17;;;1.20;99.90;;;;;;4972126;28;20586;-78
2021/12/12 05:29:20;;;;;;;14.70;9.87;;;1.30;99.90;;;;;;4972373;28;20027;-78
2021/12/12 05:31:48;;;;;;;14.20;10.03;;;1.30;99.90;;;;;;4972590;28;20023;-78
2021/12/12 05:34:17;;;;;;;15.03;10.33;;;1.30;99.90;;;;;;4954838;28;20030;-78
2021/12/12 05:36:44;;;;;;;11.80;9.23;;;1.30;99.90;;;;;;4972134;28;20030;-78
2021/12/12 05:39:10;;;;;;;14.13;9.17;;;1.30;99.90;;;;;;4954691;28;20144;-78
2021/12/12 05:41:36;;;;;;;12.30;9.13;;;1.30;99.90;;;;;;4971998;28;20380;-78
2021/12/12 05:44:04;;;;;;;12.30;9.10;;;1.30;99.90;;;;;;4972178;28;20030;-78
2021/12/12 05:46:30;;;;;;;13.80;9.50;;;1.30;99.90;;;;;;4972266;28;20019;-78
2021/12/12 05:48:59;;;;;;;12.63;9.33;;;1.30;99.90;;;;;;4954626;28;20211;-78
2021/12/12 05:51:25;;;;;;;13.07;8.90;;;1.40;99.90;;;;;;4971859;28;20102;-78
2021/12/12 05:53:55;;;;;;;14.17;9.60;;;1.40;99.90;;;;;;4972207;28;20058;-78
2021/12/12 05:56:23;;;;;;;13.53;8.80;;;1.40;99.90;;;;;;4972001;28;20061;-78
2021/12/12 05:58:49;;;;;;;10.07;7.87;;;1.40;99.90;;;;;;4971558;28;20018;-78
2021/12/12 06:01:15;;;;;;;13.80;9.87;;;1.40;99.90;;;;;;4954364;28;20146;-78
2021/12/12 06:03:43;;;;;;;11.30;8.23;;;1.40;99.90;;;;;;4970735;28;20471;-78
2021/12/12 06:06:17;;;;;;;11.37;8.37;;;1.40;99.90;;;;;;4971719;28;20402;-78
2021/12/12 06:08:45;;;;;;;13.43;8.70;;;1.40;99.90;;;;;;4971948;28;20068;-78
2021/12/12 06:11:15;;;;;;;11.43;8.50;;;1.40;99.90;;;;;;4971820;28;20054;-77
2021/12/12 06:13:41;;;;;;;13.20;8.53;;;1.40;99.90;;;;;;4971494;28;20055;-78
2021/12/12 06:16:08;;;;;;;12.23;9.07;;;1.40;99.90;;;;;;4972212;28;20126;-78
2021/12/12 06:18:36;;;;;;;10.73;8.27;;;1.40;99.90;;;;;;4971585;28;20027;-77
2021/12/12 06:21:04;;;;;;;12.53;8.67;;;1.40;99.90;;;;;;4971455;28;20030;-78
2021/12/12 06:23:30;;;;;;;11.57;8.60;;;1.40;99.90;;;;;;4971456;28;20325;-78
2021/12/12 06:25:55;;;;;;;13.20;9.20;;;1.40;99.90;;;;;;4971868;28;20022;-77
2021/12/12 06:28:30;;;;;;;10.97;8.03;;;1.40;99.90;;;;;;4971644;28;20042;-78
2021/12/12 06:30:56;;;;;;;13.23;9.35;;;1.30;99.90;;;;;;4971603;28;20460;-78
2021/12/12 06:33:22;;;;;;;12.47;8.43;;;1.30;99.90;;;;;;4971865;28;20031;-78
2021/12/12 06:35:48;;;;;;;10.87;8.40;;;1.30;99.90;;;;;;4971447;28;20031;-78
2021/12/12 06:38:15;;;;;;;12.17;8.47;;;1.30;99.90;;;;;;4971476;28;20034;-78
2021/12/12 06:40:42;;;;;;;11.23;8.13;;;1.30;99.90;;;;;;4971932;28;20023;-78
2021/12/12 06:43:11;;;;;;;12.67;8.43;;;1.30;99.90;;;;;;4971150;28;20031;-78
2021/12/12 06:45:38;;;;;;;11.50;8.80;;;1.30;99.90;;;;;;4971362;28;20084;-78
2021/12/12 06:48:06;;;;;;;13.53;8.50;;;1.30;99.90;;;;;;4954954;28;20027;-78
2021/12/12 06:50:34;;;;;;;12.37;8.33;;;1.20;99.90;;;;;;4971231;28;20390;-78
2021/12/12 06:53:00;;;;;;;11.17;8.10;;;1.20;99.90;;;;;;4971342;28;20029;-78
2021/12/12 06:55:27;;;;;;;11.77;8.43;;;1.20;99.90;;;;;;4971099;28;20053;-77
2021/12/12 06:57:52;;;;;;;9.93;7.10;;;1.20;99.90;;;;;;4971312;28;20026;-78
2021/12/12 07:00:21;;;;;;;9.50;7.23;;;1.20;99.90;;;;;;4954029;28;20460;-78
2021/12/12 07:02:47;;;;;;;11.10;8.20;;;1.20;99.90;;;;;;4971248;28;20084;-78
2021/12/12 07:05:17;;;;;;;11.13;7.50;;;1.20;99.90;;;;;;4970938;28;20425;-78
2021/12/12 07:07:45;;;;;;;10.57;7.50;;;1.20;99.90;;;;;;4971018;28;20429;-78
2021/12/12 07:10:13;;;;;;;12.77;8.77;;;1.20;99.90;;;;;;4971227;28;20019;-77
2021/12/12 07:12:40;;;;;;;12.03;8.13;;;1.20;99.90;;;;;;4971034;28;20047;-78
2021/12/12 07:15:10;;;;;;;10.73;8.27;;;1.30;99.90;;;;;;4972086;28;20027;-78
2021/12/12 07:17:36;;;;;;;12.93;8.90;;;1.30;99.90;;;;;;4974592;28;20433;-78
2021/12/12 07:20:05;;;;;;;13.33;8.30;;;1.30;99.90;;;;;;4957064;28;20023;-78
2021/12/12 07:22:31;;;;;;;12.97;7.60;;;1.30;99.90;;;;;;4974355;28;20109;-78
2021/12/12 07:25:03;;;;;;;11.37;8.00;;;1.30;99.90;;;;;;4974352;28;20076;-77
2021/12/12 07:27:29;;;;;;;11.17;7.43;;;1.30;99.90;;;;;;4973948;28;20491;-78
2021/12/12 07:29:56;;;;;;;10.23;7.83;;;1.30;99.90;;;;;;4974912;28;20029;-78
2021/12/12 07:32:22;;;;;;;10.07;7.37;;;1.40;99.90;;;;;;4973935;28;20031;-77
2021/12/12 07:34:48;;;;;;;10.00;7.43;;;1.40;99.90;;;;;;4974268;28;20491;-78
2021/12/12 07:37:14;;;;;;;8.93;7.27;;;1.40;99.90;;;;;;4957052;28;20088;-78
2021/12/12 07:39:42;;;;;;;11.40;8.70;;;1.30;99.90;;;;;;4974461;28;20033;-78
2021/12/12 07:42:08;;;;;;;11.23;8.03;;;1.40;99.90;;;;;;4973981;28;20019;-77
2021/12/12 07:44:38;;;;;;;8.90;6.70;;;1.30;99.90;;;;;;4974041;28;20072;-77
2021/12/12 07:47:05;;;;;;;10.70;8.30;;;1.30;99.90;;;;;;4973934;28;20022;-78
2021/12/12 07:49:35;;;;;;;10.17;7.67;;;1.40;99.90;;;;;;4973969;28;20073;-78
2021/12/12 07:52:04;;;;;;;10.63;7.80;;;1.40;99.90;;;;;;4973958;28;20019;-77
2021/12/12 07:54:31;;;;;;;11.27;6.80;;;1.40;99.90;;;;;;4973808;28;20052;-78
2021/12/12 07:56:57;;;;;;;10.10;7.40;;;1.40;99.90;;;;;;4956156;28;20122;-78
2021/12/12 07:59:23;;;;;;;9.47;7.03;;;1.40;99.90;;;;;;4973621;28;20510;-78
2021/12/12 08:01:52;;;;;;;11.07;8.00;;;1.50;99.90;;;;;;4973750;28;20030;-78
2021/12/12 08:04:23;;;;;;;11.60;8.13;;;1.50;99.90;;;;;;4974031;28;20027;-77
2021/12/12 08:06:49;;;;;;;13.87;8.63;;;1.50;99.90;;;;;;4973621;28;20026;-78
2021/12/12 08:09:15;;;;;;;11.27;7.97;;;1.50;99.90;;;;;;4973507;28;20109;-78
2021/12/12 08:11:42;;;;;;;10.67;7.03;;;1.50;99.90;;;;;;4973623;28;20059;-77
2021/12/12 08:14:12;;;;;;;10.67;7.77;;;1.50;99.90;;;;;;4973734;28;20039;-77
2021/12/12 08:16:38;;;;;;;10.07;8.03;;;1.50;99.90;;;;;;4973659;28;20019;-77
2021/12/12 08:19:05;;;;;;;11.10;7.87;;;1.60;99.90;;;;;;4955936;28;20031;-78
2021/12/12 08:21:33;;;;;;;11.37;7.57;;;1.60;99.90;;;;;;4956778;28;20023;-77
2021/12/12 08:24:04;;;;;;;10.53;7.33;;;1.60;99.90;;;;;;4973509;28;20378;-77
2021/12/12 08:26:31;;;;;;;9.13;6.83;;;1.60;99.90;;;;;;4972519;28;20027;-77
2021/12/12 08:28:58;;;;;;;10.37;7.70;;;1.70;99.90;;;;;;4973272;28;20474;-77
2021/12/12 08:31:24;;;;;;;10.97;8.17;;;1.70;99.90;;;;;;4973715;28;20110;-78
2021/12/12 08:33:50;;;;;;;9.13;7.27;;;1.70;99.90;;;;;;4956306;28;20035;-78
2021/12/12 08:36:16;;;;;;;9.33;6.83;;;1.70;99.90;;;;;;4973771;28;20095;-79
2021/12/12 08:38:43;;;;;;;9.50;6.97;;;1.70;99.90;;;;;;4955630;28;20033;-76
2021/12/12 08:41:08;;;;;;;11.67;8.23;;;1.80;99.90;;;;;;4972886;28;20025;-76
2021/12/12 08:43:36;;;;;;;9.20;6.97;;;1.80;99.90;;;;;;4973142;28;20015;-76
2021/12/12 08:46:06;;;;;;;8.80;6.67;;;1.90;99.90;;;;;;4972997;28;20030;-76
2021/12/12 08:48:36;;;;;;;10.47;7.13;;;2.00;99.90;;;;;;4973030;28;20041;-75
2021/12/12 08:51:07;;;;;;;9.90;7.23;;;2.00;99.90;;;;;;4958047;28;20471;-77
2021/12/12 08:53:33;;;;;;;11.07;7.90;;;2.10;99.90;;;;;;4972938;28;20023;-78
2021/12/12 08:56:00;;;;;;;10.83;8.17;;;2.10;99.90;;;;;;4955374;28;20033;-78
2021/12/12 08:58:30;;;;;;;9.33;7.03;;;2.10;99.90;;;;;;4972479;28;20023;-78
2021/12/12 09:01:01;;;;;;;9.63;7.30;;;2.10;99.90;;;;;;4972261;28;20631;-78
2021/12/12 09:03:53;;;;;;;10.63;7.60;;;2.10;99.90;;;;;;4990589;28;20559;-78
2021/12/12 09:06:23;;;;;;;10.00;7.40;;;2.10;99.90;;;;;;4967381;28;20023;-78
2021/12/12 09:09:05;;;;;;;10.83;7.33;;;2.20;99.90;;;;;;4972405;28;20035;-78
2021/12/12 09:11:49;;;;;;;11.03;7.53;;;2.20;99.90;;;;;;4972204;28;20027;-78
2021/12/12 09:14:27;;;;;;;10.63;7.60;;;2.20;99.90;;;;;;4954993;28;20491;-78
2021/12/12 09:17:15;;;;;;;11.37;7.83;;;2.20;99.90;;;;;;4972212;28;20060;-78
2021/12/12 09:19:55;;;;;;;10.13;7.50;;;2.20;99.90;;;;;;4972464;28;20114;-78
2021/12/12 09:22:29;;;;;;;12.50;8.50;;;2.30;99.90;;;;;;4972728;28;20015;-78
2021/12/12 09:25:01;;;;;;;10.18;7.32;;;2.30;99.90;;;;;;4972527;28;20100;-78
2021/12/12 09:27:35;;;;;;;11.17;8.47;;;2.40;99.90;;;;;;4972406;28;20036;-78
2021/12/12 09:30:09;;;;;;;9.18;7.10;;;2.40;99.90;;;;;;4972296;28;20023;-78
2021/12/12 09:32:52;;;;;;;9.03;7.23;;;2.40;99.90;;;;;;4955382;28;20035;-78
2021/12/12 09:35:26;;;;;;;9.67;7.23;;;2.60;99.90;;;;;;4973045;28;20027;-78
2021/12/12 09:37:55;;;;;;;9.40;7.30;;;2.60;99.90;;;;;;4991259;28;20129;-78
2021/12/12 09:40:41;;;;;;;10.07;7.53;;;2.60;99.90;;;;;;4976486;28;20034;-78
2021/12/12 09:43:52;;;;;;;10.10;7.83;;;2.70;99.90;;;;;;4976844;28;20037;-76
2021/12/12 09:46:44;;;;;;;10.93;7.83;;;2.80;99.90;;;;;;4952577;29;20513;-78
2021/12/12 09:52:32;;;;;;;10.07;7.30;;;2.90;99.90;;;;;;4952637;29;20062;-78
2021/12/12 09:55:11;;;;;;;10.23;7.60;;;3.00;99.90;;;;;;4952337;29;20023;-78
2021/12/12 09:57:46;;;;;;;9.77;7.53;;;3.00;99.90;;;;;;4952646;29;20054;-78
2021/12/12 10:00:15;;;;;;;;;;;3.30;99.90;;;;;;4935687;28;20106;-78
2021/12/12 10:03:02;;;;;;;14.17;7.97;;;3.40;99.90;;;;;;4954442;28;19910;-78
2021/12/12 10:05:42;;;;;;;11.07;7.60;;;3.60;99.90;;;;;;4971853;28;20160;-79
2021/12/12 10:08:22;;;;;;;12.63;8.23;;;3.70;99.90;;;;;;4971650;28;20521;-78
2021/12/12 10:11:03;;;;;;;10.67;8.13;;;3.70;99.90;;;;;;4954210;28;20023;-78
2021/12/12 10:13:58;;;;;;;13.57;9.37;;;3.60;99.90;;;;;;4971345;28;20039;-78
2021/12/12 10:16:38;;;;;;;10.83;8.43;;;3.70;99.90;;;;;;4971809;28;20037;-78
2021/12/12 10:19:19;;;;;;;12.23;8.63;;;3.60;99.90;;;;;;4971755;28;20089;-78
2021/12/12 10:22:13;;;;;;;11.33;8.50;;;3.50;99.90;;;;;;4972097;28;20025;-78
2021/12/12 10:24:54;;;;;;;12.00;8.97;;;3.50;99.90;;;;;;4971874;28;20380;-78
2021/12/12 10:27:44;;;;;;;12.90;9.10;;;3.40;99.90;;;;;;4971392;28;20076;-78
2021/12/12 10:30:15;;;;;;;11.30;8.80;;;3.50;99.90;;;;;;4971288;28;20023;-78
2021/12/12 10:33:07;;;;;;;11.63;8.57;;;3.50;99.90;;;;;;4971813;28;20406;-78
2021/12/12 10:36:06;;;;;;;11.87;9.00;;;3.50;99.90;;;;;;4956335;28;20089;-78
2021/12/12 10:38:44;;;;;;;11.13;8.67;;;3.50;99.90;;;;;;4971252;28;20371;-78
2021/12/12 10:41:54;;;;;;;13.17;9.03;;;3.50;99.90;;;;;;4971583;28;20113;-78
2021/12/12 10:44:34;;;;;;;11.63;8.93;;;3.50;99.90;;;;;;4955560;28;20103;-78
2021/12/12 10:47:28;;;;;;;13.47;9.53;;;3.50;99.90;;;;;;4971457;28;20458;-78
2021/12/12 10:50:04;;;;;;;14.40;9.43;;;3.50;99.90;;;;;;4972028;28;20076;-78
2021/12/12 10:52:42;;;;;;;14.70;10.40;;;3.60;99.90;;;;;;4957239;28;20058;-78
2021/12/12 10:55:17;;;;;;;13.97;10.27;;;3.60;99.90;;;;;;4974897;28;20023;-78
2021/12/12 10:57:55;;;;;;;13.07;9.90;;;3.60;99.90;;;;;;4974774;28;20030;-78
2021/12/12 11:00:25;;;;;;;13.93;9.60;;;3.60;99.90;;;;;;4974590;28;20019;-78
2021/12/12 11:03:01;;;;;;;12.40;9.33;;;3.70;99.90;;;;;;4974839;28;20027;-79
2021/12/12 11:05:34;;;;;;;13.00;9.47;;;3.70;99.90;;;;;;4974444;28;20035;-79
2021/12/12 11:08:14;;;;;;;13.87;9.93;;;3.80;99.90;;;;;;4957139;28;20053;-78
2021/12/12 11:10:44;;;;;;;13.77;10.17;;;3.80;99.90;;;;;;4974889;28;20066;-78
2021/12/12 11:13:33;;;;;;;13.60;9.53;;;3.90;99.90;;;;;;4974347;28;20479;-78
2021/12/12 11:16:09;;;;;;;13.47;9.27;;;3.90;99.90;;;;;;4974788;28;20038;-79
2021/12/12 11:18:47;;;;;;;13.90;9.73;;;4.00;99.90;;;;;;4956932;28;20423;-79
2021/12/12 11:21:27;;;;;;;11.33;8.53;;;4.00;99.90;;;;;;4974494;28;20019;-79
2021/12/12 11:24:00;;;;;;;11.60;8.07;;;4.10;99.90;;;;;;4956789;28;20498;-79
2021/12/12 11:26:42;;;;;;;8.53;6.83;;;4.10;99.90;;;;;;4974185;28;20023;-79
2021/12/12 11:29:19;;;;;;;8.60;6.17;;;4.30;99.90;;;;;;4974116;28;20034;-79
2021/12/12 11:31:56;;;;;;;8.10;6.20;;;4.30;99.90;;;;;;4974062;28;20108;-78
2021/12/12 11:34:24;;;;;;;8.17;5.57;;;4.30;99.90;;;;;;4965322;28;20015;-79
2021/12/12 11:37:05;;;;;;;7.30;5.90;;;4.40;99.90;;;;;;4980139;28;20015;-79
2021/12/12 11:39:34;;;;;;;8.00;5.43;;;4.40;99.90;;;;;;4997183;28;20023;-79
2021/12/12 11:42:31;;;;;;;7.30;5.37;;;4.40;99.90;;;;;;4996177;28;20019;-79
2021/12/12 11:45:10;;;;;;;6.73;5.67;;;4.40;99.90;;;;;;4980069;28;20050;-79
2021/12/12 11:47:57;;;;;;;6.93;5.93;;;4.30;99.90;;;;;;4997196;28;20054;-80
2021/12/12 11:50:42;;;;;;;6.47;5.30;;;4.30;99.90;;;;;;4996580;28;20041;-80
2021/12/12 11:53:37;;;;;;;7.40;5.40;;;4.30;99.90;;;;;;4996551;28;20031;-79
2021/12/12 11:56:15;;;;;;;7.63;5.70;;;4.20;99.90;;;;;;4997116;28;20015;-79
2021/12/12 11:59:03;;;;;;;7.17;5.33;;;4.20;99.90;;;;;;4996927;28;20018;-79
2021/12/12 12:01:39;;;;;;;7.70;5.90;;;4.10;99.90;;;;;;4996115;28;20015;-79
2021/12/12 12:04:20;;;;;;;7.47;5.97;;;4.20;99.90;;;;;;4973589;28;20023;-77
2021/12/12 12:07:04;;;;;;;7.37;5.60;;;4.20;99.90;;;;;;4973470;28;20098;-77
2021/12/12 12:10:04;;;;;;;8.37;5.77;;;4.20;99.90;;;;;;4973802;28;20019;-77
2021/12/12 12:13:01;;;;;;;9.23;5.80;;;4.20;99.90;;;;;;4972508;28;20042;-76
2021/12/12 12:15:51;;;;;;;6.40;5.20;;;4.20;99.90;;;;;;4972575;28;20023;-76
2021/12/12 12:18:26;;;;;;;8.97;5.90;;;4.20;99.90;;;;;;4972790;28;20046;-77
2021/12/12 12:21:18;;;;;;;7.27;5.70;;;4.20;99.90;;;;;;4972706;28;20019;-77
2021/12/12 12:26:51;;;;;;;8.77;5.83;;;4.20;99.90;;;;;;4996541;28;20042;-79
2021/12/12 12:29:32;;;;;;;7.77;5.87;;;4.20;99.90;;;;;;4996635;28;20035;-79
2021/12/12 12:32:35;;;;;;;7.20;5.90;;;4.20;99.90;;;;;;4996506;28;20034;-80
2021/12/12 12:35:24;;;;;;;6.47;5.13;;;4.20;99.90;;;;;;4994697;28;20031;-79
2021/12/12 12:38:27;;;;;;;7.93;5.43;;;4.30;99.90;;;;;;4965943;28;20058;-79
2021/12/12 12:41:17;;;;;;;7.47;5.23;;;4.30;99.90;;;;;;4991736;28;20031;-76
2021/12/12 12:44:04;;;;;;;9.47;5.73;;;4.30;99.90;;;;;;4982274;28;20034;-77
2021/12/12 12:46:54;;;;;;;7.57;5.37;;;4.30;99.90;;;;;;4992858;28;20164;-77
2021/12/12 12:49:35;;;;;;;8.50;5.53;;;4.30;99.90;;;;;;4992367;28;20463;-77
2021/12/12 12:52:34;;;;;;;8.77;5.60;;;4.30;99.90;;;;;;4992429;28;20018;-77
2021/12/12 12:54:59;;;;;;;6.37;5.10;;;4.20;99.90;;;;;;4974674;28;20019;-77
2021/12/12 12:57:37;;;;;;;7.27;5.17;;;4.20;99.90;;;;;;4992114;28;20031;-77
2021/12/12 13:00:10;;;;;;;6.57;5.30;;;4.20;99.90;;;;;;4992116;28;20323;-77
2021/12/12 13:03:13;;;;;;;7.07;5.07;;;4.20;99.90;;;;;;4991895;28;20071;-77
2021/12/12 13:05:51;;;;;;;7.07;4.50;;;4.10;99.90;;;;;;4991817;28;20026;-77
2021/12/12 13:09:21;;;;;;;7.67;4.97;;;4.10;99.90;;;;;;4974385;28;20036;-77
2021/12/12 13:12:02;;;;;;;6.97;5.07;;;4.10;99.90;;;;;;4992017;28;20034;-79
2021/12/12 13:14:47;;;;;;;6.60;4.80;;;4.10;99.90;;;;;;4982378;28;20099;-80
2021/12/12 13:17:21;;;;;;;6.93;4.95;;;4.20;99.90;;;;;;4981392;28;20159;-80
2021/12/12 13:19:55;;;;;;;6.87;4.90;;;4.20;99.90;;;;;;4991811;28;20105;-80
2021/12/12 13:22:36;;;;;;;7.47;5.15;;;4.20;99.90;;;;;;4982434;28;20144;-80
2021/12/12 13:25:31;;;;;;;8.50;4.60;;;4.20;99.90;;;;;;4977999;28;20038;-79
2021/12/12 13:28:26;;;;;;;6.38;4.32;;;4.20;99.90;;;;;;4975692;28;20045;-67
2021/12/12 13:31:05;;;;;;;8.13;4.88;;;4.20;99.90;;;;;;4985234;28;20038;-72
2021/12/12 13:34:02;;;;;;;7.17;4.93;;;4.20;99.90;;;;;;4977474;28;20046;-75
2021/12/12 13:37:09;;;;;;;6.83;4.70;;;4.20;99.90;;;;;;4980071;28;20039;-87
2021/12/12 13:40:02;;;;;;;10.23;4.27;;;4.10;99.90;;;;;;4961530;28;20035;-81
2021/12/12 13:42:41;;;;;;;6.67;4.17;;;4.20;99.90;;;;;;4975775;28;20023;-81
2021/12/12 13:45:23;;;;;;;8.77;4.50;;;4.20;99.90;;;;;;4978904;28;20035;-81
2021/12/12 13:48:34;;;;;;;5.23;3.90;;;4.10;99.90;;;;;;4974698;28;20063;-82